createdAt,value
2019-05-29T00:00:59.829Z,8.60
2019-05-29T00:03:03.868Z,8.70
2019-05-29T00:05:08.092Z,8.60
2019-05-29T00:07:12.262Z,8.50
2019-05-29T00:09:16.178Z,8.50
2019-05-29T00:11:19.995Z,8.60
2019-05-29T00:13:23.869Z,8.50
2019-05-29T00:15:27.754Z,8.40
2019-05-29T00:17:31.651Z,8.40
2019-05-29T00:19:35.514Z,8.40
2019-05-29T00:21:39.404Z,8.40
2019-05-29T00:23:43.220Z,8.40
2019-05-29T00:25:47.149Z,8.60
2019-05-29T00:27:51.011Z,8.50
2019-05-29T00:29:54.911Z,8.50
2019-05-29T00:31:58.817Z,8.40
2019-05-29T00:34:02.743Z,8.50
2019-05-29T00:36:06.615Z,8.60
2019-05-29T00:38:10.606Z,8.60
2019-05-29T00:40:15.283Z,8.60
2019-05-29T00:42:19.282Z,8.70
2019-05-29T00:44:34.018Z,8.70
2019-05-29T00:46:28.685Z,8.70
2019-05-29T00:48:32.567Z,8.50
2019-05-29T00:50:36.446Z,8.80
2019-05-29T00:52:40.364Z,8.80
2019-05-29T00:54:44.399Z,8.70
2019-05-29T00:56:48.212Z,8.50
2019-05-29T00:58:52.063Z,8.50
2019-05-29T01:00:56.072Z,8.50
2019-05-29T01:03:00.152Z,8.60
2019-05-29T01:05:04.528Z,8.40
2019-05-29T01:07:08.468Z,8.40
2019-05-29T01:09:12.412Z,8.30
2019-05-29T01:11:16.835Z,8.40
2019-05-29T01:13:21.271Z,8.40
2019-05-29T01:15:25.527Z,8.30
2019-05-29T01:17:29.507Z,8.30
2019-05-29T01:19:33.455Z,8.20
2019-05-29T01:21:37.263Z,8.30
2019-05-29T01:23:41.251Z,8.40
2019-05-29T01:25:45.200Z,8.20
2019-05-29T01:27:49.129Z,8.10
2019-05-29T01:29:53.024Z,8.00
2019-05-29T01:31:56.868Z,8.10
2019-05-29T01:34:00.800Z,8.00
2019-05-29T01:36:04.896Z,8.00
2019-05-29T01:38:08.893Z,8.00
2019-05-29T01:40:19.992Z,8.10
2019-05-29T01:42:19.479Z,8.10
2019-05-29T01:44:23.732Z,8.10
2019-05-29T01:46:27.963Z,8.20
2019-05-29T01:48:32.169Z,8.10
2019-05-29T01:50:36.202Z,8.00
2019-05-29T01:52:40.008Z,8.00
2019-05-29T01:54:43.871Z,8.10
2019-05-29T01:56:47.763Z,8.20
2019-05-29T01:58:51.592Z,8.30
2019-05-29T02:00:55.444Z,8.20
2019-05-29T02:02:59.363Z,8.20
2019-05-29T02:05:03.450Z,8.20
2019-05-29T02:07:07.443Z,8.10
2019-05-29T02:09:11.379Z,8.10
2019-05-29T02:11:15.263Z,8.10
2019-05-29T02:13:19.499Z,8.00
2019-05-29T02:15:31.630Z,7.90
2019-05-29T02:17:29.139Z,7.80
2019-05-29T02:19:32.947Z,7.60
2019-05-29T02:21:36.915Z,7.50
2019-05-29T02:23:40.730Z,7.70
2019-05-29T02:25:44.656Z,7.70
2019-05-29T02:27:48.575Z,7.70
2019-05-29T02:29:52.519Z,7.80
2019-05-29T02:31:56.529Z,7.70
2019-05-29T02:34:00.517Z,7.70
2019-05-29T02:36:04.649Z,7.70
2019-05-29T02:38:08.777Z,7.70
2019-05-29T02:40:13.069Z,7.70
2019-05-29T02:42:18.595Z,7.60
2019-05-29T02:44:23.469Z,7.80
2019-05-29T02:46:28.620Z,7.70
2019-05-29T02:48:33.155Z,7.70
2019-05-29T02:50:37.125Z,7.70
2019-05-29T02:52:41.112Z,7.80
2019-05-29T02:54:45.014Z,7.70
2019-05-29T02:56:49.062Z,7.90
2019-05-29T02:58:52.930Z,7.70
2019-05-29T03:00:56.957Z,7.80
2019-05-29T03:03:00.881Z,7.90
2019-05-29T03:05:05.204Z,7.90
2019-05-29T03:07:09.351Z,7.90
2019-05-29T03:09:13.502Z,7.90
2019-05-29T03:11:17.451Z,7.80
2019-05-29T03:13:22.953Z,8.00
2019-05-29T03:15:27.379Z,7.90
2019-05-29T03:17:31.926Z,7.80
2019-05-29T03:19:35.957Z,8.00
2019-05-29T03:21:39.863Z,7.90
2019-05-29T03:23:43.687Z,7.80
2019-05-29T03:25:47.630Z,7.90
2019-05-29T03:27:51.492Z,8.00
2019-05-29T03:29:55.304Z,8.10
2019-05-29T03:31:59.175Z,8.20
2019-05-29T03:34:03.077Z,8.20
2019-05-29T03:36:07.061Z,8.20
2019-05-29T03:38:10.986Z,8.20
2019-05-29T03:40:15.199Z,8.20
2019-05-29T03:42:19.078Z,8.10
2019-05-29T03:44:23.036Z,8.00
2019-05-29T03:46:34.361Z,8.10
2019-05-29T03:48:34.206Z,8.00
2019-05-29T03:50:38.484Z,8.00
2019-05-29T03:52:42.688Z,8.10
2019-05-29T03:54:46.532Z,8.10
2019-05-29T03:56:50.953Z,8.20
2019-05-29T03:58:54.858Z,8.20
2019-05-29T04:00:58.794Z,8.20
2019-05-29T04:03:02.728Z,8.10
2019-05-29T04:05:07.222Z,8.20
2019-05-29T04:07:11.151Z,8.20
2019-05-29T04:09:15.117Z,8.30
2019-05-29T04:11:19.058Z,8.30
2019-05-29T04:13:22.993Z,8.30
2019-05-29T04:15:27.558Z,8.40
2019-05-29T04:17:35.523Z,8.40
2019-05-29T04:19:40.072Z,8.40
2019-05-29T04:21:46.481Z,8.50
2019-05-29T04:23:51.479Z,8.60
2019-05-29T04:25:57.932Z,8.60
2019-05-29T04:28:04.362Z,8.80
2019-05-29T04:30:09.120Z,9.00
2019-05-29T04:32:13.101Z,8.90
2019-05-29T04:34:16.953Z,8.90
2019-05-29T04:36:20.854Z,9.00
2019-05-29T04:38:24.682Z,9.00
2019-05-29T04:40:28.763Z,9.00
2019-05-29T04:42:33.982Z,9.10
2019-05-29T04:44:40.891Z,9.30
2019-05-29T04:46:44.661Z,9.30
2019-05-29T04:48:48.532Z,9.30
2019-05-29T04:50:52.440Z,9.30
2019-05-29T04:52:56.328Z,9.30
2019-05-29T04:55:00.262Z,9.40
2019-05-29T04:57:04.166Z,9.40
2019-05-29T04:59:07.987Z,9.50
2019-05-29T05:01:12.065Z,9.50
2019-05-29T05:03:15.883Z,9.40
2019-05-29T05:05:19.841Z,9.40
2019-05-29T05:07:23.736Z,9.50
2019-05-29T05:09:27.547Z,9.60
2019-05-29T05:11:31.400Z,9.70
2019-05-29T05:13:35.551Z,9.70
2019-05-29T05:15:40.176Z,9.70
2019-05-29T05:17:44.288Z,9.70
2019-05-29T05:19:48.184Z,9.70
2019-05-29T05:21:52.038Z,9.70
2019-05-29T05:23:55.963Z,9.80
2019-05-29T05:25:59.895Z,9.80
2019-05-29T05:28:04.159Z,9.90
2019-05-29T05:30:09.258Z,9.80
2019-05-29T05:32:13.447Z,9.80
2019-05-29T05:34:17.268Z,9.80
2019-05-29T05:36:21.202Z,9.90
2019-05-29T05:38:25.101Z,10.00
2019-05-29T05:40:29.162Z,10.10
2019-05-29T05:42:33.074Z,10.10
2019-05-29T05:44:37.085Z,10.10
2019-05-29T05:46:41.334Z,10.20
2019-05-29T05:48:45.304Z,10.00
2019-05-29T05:50:49.379Z,10.10
2019-05-29T05:52:53.345Z,10.20
2019-05-29T05:54:57.321Z,10.30
2019-05-29T05:57:01.147Z,10.50
2019-05-29T05:59:05.121Z,10.50
2019-05-29T06:01:09.301Z,10.60
2019-05-29T06:03:13.191Z,10.60
2019-05-29T06:05:17.092Z,10.40
2019-05-29T06:07:20.944Z,10.40
2019-05-29T06:09:25.115Z,10.50
2019-05-29T06:11:28.945Z,10.70
2019-05-29T06:13:32.888Z,10.80
2019-05-29T06:15:36.859Z,10.80
2019-05-29T06:17:41.138Z,10.80
2019-05-29T06:19:44.989Z,10.70
2019-05-29T06:21:48.851Z,10.70
2019-05-29T06:23:52.793Z,10.70
2019-05-29T06:25:59.981Z,10.50
2019-05-29T06:28:02.532Z,10.40
2019-05-29T06:30:07.818Z,10.50
2019-05-29T06:32:11.684Z,10.70
2019-05-29T06:34:15.617Z,10.70
2019-05-29T06:36:19.443Z,10.90
2019-05-29T06:38:23.342Z,10.70
2019-05-29T06:40:33.927Z,10.70
2019-05-29T06:42:38.275Z,10.70
2019-05-29T06:44:44.905Z,10.80
2019-05-29T06:46:48.006Z,10.80
2019-05-29T06:48:59.401Z,11.00
2019-05-29T06:50:57.953Z,11.20
2019-05-29T06:53:02.105Z,11.40
2019-05-29T06:55:06.175Z,11.50
2019-05-29T06:57:10.040Z,11.60
2019-05-29T06:59:13.909Z,11.70
2019-05-29T07:01:17.851Z,11.70
2019-05-29T07:03:21.709Z,11.60
2019-05-29T07:05:25.707Z,11.60
2019-05-29T07:07:29.541Z,11.80
2019-05-29T07:09:33.380Z,12.00
2019-05-29T07:11:37.331Z,11.70
2019-05-29T07:13:43.917Z,11.60
2019-05-29T07:15:47.550Z,11.60
2019-05-29T07:17:51.533Z,11.50
2019-05-29T07:20:03.988Z,11.60
2019-05-29T07:22:07.085Z,11.40
2019-05-29T07:24:11.064Z,11.30
2019-05-29T07:26:14.993Z,11.20
2019-05-29T07:28:20.472Z,11.00
2019-05-29T07:30:24.632Z,11.00
2019-05-29T07:32:28.661Z,11.10
2019-05-29T07:34:49.719Z,11.30
2019-05-29T07:36:39.775Z,11.30
2019-05-29T07:38:46.065Z,11.50
2019-05-29T07:40:50.154Z,11.50
2019-05-29T07:42:56.644Z,11.80
2019-05-29T07:44:59.983Z,11.90
2019-05-29T07:47:03.990Z,11.80
2019-05-29T07:49:08.007Z,11.70
2019-05-29T07:51:11.858Z,11.70
2019-05-29T07:53:15.758Z,11.70
2019-05-29T07:55:23.545Z,11.70
2019-05-29T08:03:03.774Z,11.50
2019-05-29T08:05:08.188Z,11.60
2019-05-29T08:07:12.268Z,11.70
2019-05-29T08:09:16.273Z,11.80
2019-05-29T08:11:20.140Z,11.90
2019-05-29T08:13:23.995Z,11.90
2019-05-29T08:15:27.908Z,12.00
2019-05-29T08:17:31.803Z,12.00
2019-05-29T08:19:35.725Z,12.00
2019-05-29T08:21:40.981Z,12.00
2019-05-29T08:23:46.324Z,11.90
2019-05-29T08:25:51.778Z,12.00
2019-05-29T08:27:55.837Z,11.90
2019-05-29T08:29:59.740Z,11.90
2019-05-29T08:32:03.663Z,11.90
2019-05-29T08:34:07.567Z,11.90
2019-05-29T08:36:11.477Z,12.20
2019-05-29T08:38:15.399Z,12.30
2019-05-29T08:40:19.703Z,12.30
2019-05-29T08:42:24.032Z,12.50
2019-05-29T08:44:28.129Z,12.30
2019-05-29T08:46:33.493Z,12.10
2019-05-29T08:48:37.538Z,12.30
2019-05-29T08:50:41.557Z,12.50
2019-05-29T08:52:45.999Z,12.70
2019-05-29T08:54:50.171Z,12.90
2019-05-29T08:56:54.152Z,13.00
2019-05-29T08:58:57.997Z,12.80
2019-05-29T09:01:01.821Z,12.70
2019-05-29T09:03:05.702Z,12.70
2019-05-29T09:05:10.380Z,12.70
2019-05-29T09:07:14.363Z,12.50
2019-05-29T09:09:18.212Z,12.60
2019-05-29T09:11:22.205Z,12.40
2019-05-29T09:13:26.183Z,12.20
2019-05-29T09:15:30.085Z,12.00
2019-05-29T09:17:34.666Z,11.80
2019-05-29T09:19:38.858Z,12.00
2019-05-29T09:21:42.673Z,12.00
2019-05-29T09:23:46.582Z,12.10
2019-05-29T09:25:52.128Z,12.30
2019-05-29T09:27:56.031Z,12.40
2019-05-29T09:29:59.851Z,12.50
2019-05-29T09:32:03.762Z,12.50
2019-05-29T09:34:07.672Z,12.50
2019-05-29T09:36:11.627Z,12.40
2019-05-29T09:38:16.739Z,12.70
2019-05-29T09:40:21.255Z,12.70
2019-05-29T09:42:25.444Z,12.80
2019-05-29T09:44:38.375Z,12.70
2019-05-29T09:46:35.068Z,12.70
2019-05-29T09:48:49.156Z,13.00
2019-05-29T09:50:50.108Z,13.10
2019-05-29T09:52:50.090Z,13.00
2019-05-29T09:54:54.668Z,13.00
2019-05-29T09:56:59.580Z,13.00
2019-05-29T09:59:04.340Z,13.30
2019-05-29T10:01:21.982Z,13.30
2019-05-29T10:03:13.783Z,13.50
2019-05-29T10:05:17.844Z,13.50
2019-05-29T10:07:21.891Z,13.70
2019-05-29T10:09:25.916Z,13.40
2019-05-29T10:11:29.903Z,13.40
2019-05-29T10:13:33.811Z,13.30
2019-05-29T10:15:37.764Z,13.60
2019-05-29T10:17:41.764Z,13.90
2019-05-29T10:19:45.707Z,14.00
2019-05-29T10:21:49.559Z,13.90
2019-05-29T10:23:54.747Z,13.90
2019-05-29T10:26:00.717Z,13.80
2019-05-29T10:28:06.093Z,13.90
2019-05-29T10:30:13.159Z,13.80
2019-05-29T10:32:17.119Z,13.50
2019-05-29T10:34:21.070Z,13.50
2019-05-29T10:36:24.934Z,13.50
2019-05-29T10:38:28.791Z,13.40
2019-05-29T10:40:32.743Z,13.40
2019-05-29T10:42:36.723Z,13.50
2019-05-29T10:44:40.664Z,13.50
2019-05-29T10:46:47.782Z,13.40
2019-05-29T10:48:52.843Z,13.40
2019-05-29T10:50:56.311Z,13.40
2019-05-29T10:53:00.219Z,13.10
2019-05-29T10:55:04.823Z,12.90
2019-05-29T10:57:08.817Z,12.90
2019-05-29T10:59:12.739Z,12.80
2019-05-29T11:01:16.693Z,13.00
2019-05-29T11:03:20.553Z,13.20
2019-05-29T11:05:24.401Z,13.40
2019-05-29T11:07:28.295Z,13.50
2019-05-29T11:09:43.901Z,13.50
2019-05-29T11:11:37.784Z,13.30
2019-05-29T11:13:41.645Z,13.40
2019-05-29T11:15:46.504Z,13.50
2019-05-29T11:17:51.363Z,13.40
2019-05-29T11:19:55.664Z,13.50
2019-05-29T11:22:10.866Z,13.40
2019-05-29T11:24:05.427Z,13.40
2019-05-29T11:26:09.332Z,13.60
2019-05-29T11:28:13.267Z,13.70
2019-05-29T11:30:17.420Z,13.90
2019-05-29T11:32:21.275Z,14.20
2019-05-29T11:34:25.300Z,14.30
2019-05-29T11:36:29.560Z,14.70
2019-05-29T11:38:33.439Z,14.90
2019-05-29T11:40:37.978Z,15.30
2019-05-29T11:42:42.211Z,15.30
2019-05-29T11:44:46.184Z,15.10
2019-05-29T11:46:50.191Z,15.00
2019-05-29T11:48:55.247Z,15.30
2019-05-29T11:50:59.231Z,15.80
2019-05-29T11:53:03.184Z,16.30
2019-05-29T11:55:08.431Z,15.90
2019-05-29T11:57:12.601Z,15.70
2019-05-29T11:59:16.415Z,15.60
2019-05-29T12:01:20.407Z,15.40
2019-05-29T12:03:24.315Z,14.90
2019-05-29T12:05:28.198Z,15.10
2019-05-29T12:07:32.153Z,15.30
2019-05-29T12:09:36.369Z,15.60
2019-05-29T12:11:40.670Z,15.60
2019-05-29T12:13:44.561Z,15.20
2019-05-29T12:15:48.754Z,15.00
2019-05-29T12:18:00.214Z,15.40
2019-05-29T12:19:59.882Z,16.30
2019-05-29T12:22:04.066Z,17.00
2019-05-29T12:24:08.028Z,16.90
2019-05-29T12:26:21.914Z,16.60
2019-05-29T12:28:17.440Z,16.20
2019-05-29T12:30:21.601Z,16.00
2019-05-29T12:32:25.407Z,16.10
2019-05-29T12:34:29.251Z,16.30
2019-05-29T12:36:33.115Z,17.20
2019-05-29T12:38:37.011Z,18.00
2019-05-29T12:40:41.007Z,18.30
2019-05-29T12:42:45.294Z,18.90
2019-05-29T12:44:49.387Z,18.60
2019-05-29T12:46:53.530Z,18.30
2019-05-29T12:48:57.650Z,18.00
2019-05-29T12:51:02.240Z,17.90
2019-05-29T12:53:06.896Z,18.10
2019-05-29T12:55:11.615Z,18.60
2019-05-29T12:57:15.445Z,18.70
2019-05-29T12:59:19.381Z,18.80
2019-05-29T13:01:23.452Z,17.30
2019-05-29T13:03:27.418Z,16.60
2019-05-29T13:05:31.553Z,16.60
2019-05-29T13:07:35.515Z,17.00
2019-05-29T13:09:39.432Z,17.80
2019-05-29T13:11:43.341Z,18.40
2019-05-29T13:13:47.272Z,18.60
2019-05-29T13:15:51.551Z,18.50
2019-05-29T13:18:00.889Z,18.40
2019-05-29T13:20:13.674Z,18.10
2019-05-29T13:22:07.039Z,18.90
2019-05-29T13:24:11.688Z,20.70
2019-05-29T13:26:15.719Z,20.90
2019-05-29T13:28:19.536Z,20.40
2019-05-29T13:30:23.813Z,20.10
2019-05-29T13:32:27.747Z,19.90
2019-05-29T13:34:31.841Z,20.10
2019-05-29T13:36:35.836Z,20.40
2019-05-29T13:38:39.895Z,18.40
2019-05-29T13:40:43.865Z,17.40
2019-05-29T13:42:47.749Z,17.10
2019-05-29T13:44:51.733Z,17.60
2019-05-29T13:46:56.004Z,18.70
2019-05-29T13:49:01.133Z,19.30
2019-05-29T13:51:05.574Z,19.90
2019-05-29T13:53:09.575Z,20.20
2019-05-29T13:55:14.088Z,20.10
2019-05-29T13:57:18.000Z,19.80
2019-05-29T13:59:21.891Z,19.50
2019-05-29T14:01:25.734Z,19.00
2019-05-29T14:03:29.656Z,18.50
2019-05-29T14:05:33.556Z,19.50
2019-05-29T14:07:38.136Z,20.00
2019-05-29T14:09:42.023Z,20.10
2019-05-29T14:11:46.012Z,19.60
2019-05-29T14:13:50.048Z,19.90
2019-05-29T14:15:53.880Z,19.80
2019-05-29T14:17:57.951Z,20.00
2019-05-29T14:20:02.677Z,19.50
2019-05-29T14:22:07.121Z,19.80
2019-05-29T14:24:26.193Z,20.20
2019-05-29T14:26:16.856Z,20.20
2019-05-29T14:28:20.807Z,21.50
2019-05-29T14:30:25.496Z,21.20
2019-05-29T14:32:29.307Z,20.30
2019-05-29T14:34:33.363Z,19.60
2019-05-29T14:36:37.183Z,18.60
2019-05-29T14:38:41.175Z,18.50
2019-05-29T14:40:45.016Z,18.20
2019-05-29T14:42:48.864Z,18.30
2019-05-29T14:44:52.796Z,18.60
2019-05-29T14:46:56.680Z,19.00
2019-05-29T14:49:00.523Z,19.20
2019-05-29T14:51:04.957Z,19.10
2019-05-29T14:53:09.855Z,19.40
2019-05-29T14:55:18.096Z,19.30
2019-05-29T14:57:25.838Z,19.50
2019-05-29T14:59:26.522Z,18.80
2019-05-29T15:01:30.495Z,18.60
2019-05-29T15:03:35.040Z,17.70
2019-05-29T15:05:38.951Z,17.30
2019-05-29T15:07:42.879Z,17.30
2019-05-29T15:09:46.773Z,17.60
2019-05-29T15:11:50.606Z,18.50
2019-05-29T15:13:54.420Z,19.40
2019-05-29T15:15:58.267Z,20.50
2019-05-29T15:18:02.082Z,21.80
2019-05-29T15:20:07.461Z,22.80
2019-05-29T15:22:11.612Z,23.20
2019-05-29T15:24:15.948Z,23.90
2019-05-29T15:26:19.886Z,22.10
2019-05-29T15:28:23.815Z,20.40
2019-05-29T15:30:27.782Z,19.20
2019-05-29T15:32:31.650Z,19.40
2019-05-29T15:34:35.676Z,18.90
2019-05-29T15:36:39.490Z,18.70
2019-05-29T15:38:43.316Z,17.90
2019-05-29T15:40:47.412Z,17.50
2019-05-29T15:42:51.232Z,17.10
2019-05-29T15:44:55.061Z,16.90
2019-05-29T15:46:59.099Z,17.10
2019-05-29T15:49:03.041Z,18.20
2019-05-29T15:51:06.977Z,19.40
2019-05-29T15:53:11.050Z,20.20
2019-05-29T15:55:28.388Z,21.00
2019-05-29T15:57:20.967Z,20.90
2019-05-29T15:59:24.794Z,20.40
2019-05-29T16:01:28.656Z,20.20
2019-05-29T16:03:32.545Z,20.00
2019-05-29T16:05:36.459Z,19.80
2019-05-29T16:07:40.387Z,19.60
2019-05-29T16:09:44.210Z,19.70
2019-05-29T16:11:48.061Z,20.20
2019-05-29T16:13:52.179Z,20.60
2019-05-29T16:15:56.000Z,21.50
2019-05-29T16:17:59.836Z,21.50
2019-05-29T16:20:04.271Z,21.70
2019-05-29T16:22:08.477Z,21.50
2019-05-29T16:24:12.712Z,21.70
2019-05-29T16:26:18.323Z,22.10
2019-05-29T16:28:22.303Z,23.10
2019-05-29T16:30:26.227Z,23.10
2019-05-29T16:32:30.062Z,22.90
2019-05-29T16:34:33.951Z,22.70
2019-05-29T16:36:37.875Z,23.00
2019-05-29T16:38:41.903Z,22.10
2019-05-29T16:40:46.048Z,21.30
2019-05-29T16:42:49.969Z,21.40
2019-05-29T16:44:53.807Z,21.50
2019-05-29T16:46:57.725Z,21.40
2019-05-29T16:49:01.613Z,21.30
2019-05-29T16:51:05.588Z,20.90
2019-05-29T16:53:09.451Z,20.70
2019-05-29T16:55:15.344Z,20.60
2019-05-29T16:57:19.362Z,20.50
2019-05-29T16:59:24.931Z,21.00
2019-05-29T17:01:28.895Z,21.20
2019-05-29T17:03:32.832Z,21.00
2019-05-29T17:05:36.872Z,21.30
2019-05-29T17:07:40.782Z,22.20
2019-05-29T17:09:46.064Z,23.10
2019-05-29T17:11:49.896Z,23.20
2019-05-29T17:13:53.878Z,23.30
2019-05-29T17:15:57.698Z,22.60
2019-05-29T17:18:01.760Z,23.00
2019-05-29T17:20:06.985Z,23.20
2019-05-29T17:22:10.854Z,22.70
2019-05-29T17:24:14.782Z,22.40
2019-05-29T17:26:18.725Z,22.40
2019-05-29T17:28:26.276Z,22.30
2019-05-29T17:30:31.727Z,22.20
2019-05-29T17:32:35.820Z,22.10
2019-05-29T17:34:39.645Z,22.60
2019-05-29T17:36:43.508Z,22.60
2019-05-29T17:38:47.506Z,23.10
2019-05-29T17:40:51.410Z,23.30
2019-05-29T17:42:55.474Z,24.00
2019-05-29T17:44:59.291Z,24.10
2019-05-29T17:47:03.320Z,24.10
2019-05-29T17:49:07.265Z,23.70
2019-05-29T17:51:11.151Z,23.70
2019-05-29T17:53:15.764Z,23.70
2019-05-29T17:55:21.832Z,23.80
2019-05-29T17:57:26.038Z,23.40
2019-05-29T17:59:30.127Z,22.90
2019-05-29T18:01:34.056Z,22.80
2019-05-29T18:03:37.887Z,22.70
2019-05-29T18:05:41.800Z,22.50
2019-05-29T18:07:45.722Z,22.40
2019-05-29T18:09:49.583Z,22.30
2019-05-29T18:11:53.570Z,22.70
2019-05-29T18:13:57.489Z,22.20
2019-05-29T18:16:01.329Z,21.60
2019-05-29T18:18:05.330Z,21.50
2019-05-29T18:20:14.283Z,21.20
2019-05-29T18:22:15.933Z,21.10
2019-05-29T18:24:19.839Z,21.30
2019-05-29T18:26:24.247Z,21.60
2019-05-29T18:28:28.443Z,22.10
2019-05-29T18:30:32.591Z,22.40
2019-05-29T18:32:36.793Z,22.30
2019-05-29T18:34:40.636Z,22.50
2019-05-29T18:36:44.488Z,22.50
2019-05-29T18:38:48.380Z,22.30
2019-05-29T18:40:52.289Z,22.20
2019-05-29T18:42:56.116Z,22.00
2019-05-29T18:45:00.258Z,22.10
2019-05-29T18:47:04.326Z,22.00
2019-05-29T18:49:08.175Z,21.90
2019-05-29T18:51:12.098Z,22.00
2019-05-29T18:53:16.128Z,22.00
2019-05-29T18:55:20.784Z,21.90
2019-05-29T18:57:25.124Z,21.70
2019-05-29T18:59:29.593Z,21.50
2019-05-29T19:01:33.446Z,21.60
2019-05-29T19:03:40.369Z,21.60
2019-05-29T19:05:43.542Z,21.50
2019-05-29T19:07:47.433Z,21.10
2019-05-29T19:09:51.284Z,20.70
2019-05-29T19:11:55.292Z,20.60
2019-05-29T19:13:59.297Z,20.60
2019-05-29T19:16:03.119Z,20.20
2019-05-29T19:18:07.061Z,20.00
2019-05-29T19:20:12.507Z,19.50
2019-05-29T19:22:16.507Z,19.20
2019-05-29T19:24:20.459Z,18.80
2019-05-29T19:26:24.742Z,18.50
2019-05-29T19:28:28.907Z,18.20
2019-05-29T19:30:33.056Z,18.00
2019-05-29T19:32:37.015Z,17.90
2019-05-29T19:34:40.923Z,17.70
2019-05-29T19:36:44.816Z,17.60
2019-05-29T19:38:48.811Z,17.40
2019-05-29T19:40:52.735Z,17.30
2019-05-29T19:42:56.737Z,17.40
2019-05-29T19:45:00.816Z,17.30
2019-05-29T19:47:04.810Z,17.10
2019-05-29T19:49:08.846Z,17.10
2019-05-29T19:51:12.780Z,17.00
2019-05-29T19:53:16.795Z,16.90
2019-05-29T19:55:20.864Z,16.50
2019-05-29T19:57:25.941Z,16.60
2019-05-29T19:59:30.067Z,16.30
2019-05-29T20:01:37.734Z,16.00
2019-05-29T20:03:39.904Z,16.10
2019-05-29T20:05:43.901Z,16.10
2019-05-29T20:07:47.814Z,16.20
2019-05-29T20:09:51.795Z,16.20
2019-05-29T20:11:55.724Z,16.10
2019-05-29T20:13:59.777Z,16.30
2019-05-29T20:16:04.050Z,16.00
2019-05-29T20:18:08.098Z,16.10
2019-05-29T20:20:12.212Z,16.00
2019-05-29T20:22:16.044Z,16.00
2019-05-29T20:24:19.950Z,15.80
2019-05-29T20:26:23.981Z,15.80
2019-05-29T20:28:27.888Z,15.90
2019-05-29T20:30:32.342Z,15.90
2019-05-29T20:32:36.814Z,15.80
2019-05-29T20:34:40.748Z,15.60
2019-05-29T20:36:44.943Z,15.40
2019-05-29T20:38:48.801Z,15.50
2019-05-29T20:40:52.809Z,15.40
2019-05-29T20:42:56.730Z,15.10
2019-05-29T20:45:00.681Z,15.20
2019-05-29T20:47:04.676Z,15.40
2019-05-29T20:49:08.620Z,15.40
2019-05-29T20:51:12.460Z,15.00
2019-05-29T20:53:16.417Z,15.10
2019-05-29T20:55:20.421Z,15.30
2019-05-29T20:57:24.356Z,14.90
2019-05-29T20:59:28.259Z,14.90
2019-05-29T21:01:32.232Z,15.00
2019-05-29T21:03:36.348Z,15.00
2019-05-29T21:05:40.830Z,15.00
2019-05-29T21:07:44.860Z,14.70
2019-05-29T21:09:48.692Z,14.80
2019-05-29T21:11:52.613Z,14.80
2019-05-29T21:13:56.524Z,14.60
2019-05-29T21:16:00.388Z,14.80
2019-05-29T21:18:04.376Z,14.70
2019-05-29T21:20:09.105Z,14.80
2019-05-29T21:22:12.994Z,14.40
2019-05-29T21:24:16.844Z,14.30
2019-05-29T21:26:20.667Z,14.50
2019-05-29T21:28:39.855Z,14.50
2019-05-29T21:30:33.091Z,14.30
2019-05-29T21:32:37.822Z,14.00
2019-05-29T21:34:41.982Z,13.90
2019-05-29T21:36:46.355Z,13.80
2019-05-29T21:38:50.430Z,13.90
2019-05-29T21:40:54.388Z,14.00
2019-05-29T21:42:58.574Z,14.00
2019-05-29T21:45:02.558Z,13.90
2019-05-29T21:47:06.400Z,13.80
2019-05-29T21:49:10.493Z,13.70
2019-05-29T21:51:14.613Z,13.70
2019-05-29T21:53:21.045Z,13.70
2019-05-29T21:55:24.972Z,13.80
2019-05-29T21:57:28.842Z,13.40
2019-05-29T21:59:32.764Z,13.60
2019-05-29T22:01:37.919Z,13.40
2019-05-29T22:03:42.409Z,13.40
2019-05-29T22:05:46.801Z,13.40
2019-05-29T22:07:50.927Z,13.40
2019-05-29T22:09:54.863Z,13.30
2019-05-29T22:11:58.997Z,13.30
2019-05-29T22:14:02.980Z,13.50
2019-05-29T22:16:07.174Z,13.30
2019-05-29T22:18:13.941Z,13.40
2019-05-29T22:20:18.027Z,13.10
2019-05-29T22:22:22.040Z,13.10
2019-05-29T22:24:25.945Z,13.10
2019-05-29T22:26:30.032Z,13.20
2019-05-29T22:28:33.859Z,13.20
2019-05-29T22:30:37.846Z,13.20
2019-05-29T22:32:41.707Z,13.30
2019-05-29T22:34:45.672Z,13.20
2019-05-29T22:36:49.502Z,13.20
2019-05-29T22:38:53.491Z,13.20
2019-05-29T22:40:57.719Z,13.20
2019-05-29T22:43:01.972Z,13.20
2019-05-29T22:45:07.046Z,13.30
2019-05-29T22:47:10.968Z,13.20
2019-05-29T22:49:14.918Z,13.10
2019-05-29T22:51:18.873Z,13.00
2019-05-29T22:53:22.778Z,13.00
2019-05-29T22:55:26.616Z,13.00
2019-05-29T22:57:30.632Z,12.90
2019-05-29T22:59:34.476Z,12.90
2019-05-29T23:01:38.436Z,12.90
2019-05-29T23:03:42.499Z,12.90
2019-05-29T23:05:46.408Z,13.00
2019-05-29T23:07:50.322Z,12.80
2019-05-29T23:09:54.347Z,13.00
2019-05-29T23:14:13.413Z,12.80
2019-05-29T23:16:17.298Z,12.80
2019-05-29T23:18:21.171Z,12.70
2019-05-29T23:20:25.226Z,12.70
2019-05-29T23:22:29.142Z,12.70
2019-05-29T23:24:33.078Z,12.70
2019-05-29T23:26:37.207Z,12.50
2019-05-29T23:28:41.043Z,12.60
2019-05-29T23:30:45.326Z,12.70
2019-05-29T23:32:49.288Z,12.70
2019-05-29T23:34:57.152Z,12.50
2019-05-29T23:37:01.398Z,12.60
2019-05-29T23:39:06.218Z,12.60
2019-05-29T23:41:10.074Z,12.50
2019-05-29T23:43:13.991Z,12.20
2019-05-29T23:45:18.033Z,12.20
2019-05-29T23:47:21.926Z,12.10
2019-05-29T23:49:25.764Z,12.20
2019-05-29T23:51:29.732Z,12.30
2019-05-29T23:53:33.643Z,12.30
2019-05-29T23:55:37.616Z,12.10
2019-05-29T23:57:41.493Z,12.00
2019-05-29T23:59:45.323Z,12.00
